sensor_id;sensor_type;location;lat;lon;timestamp;P1;durP1;ratioP1;P2;durP2;ratioP2
17151;SDS011;8691;50.828;4.700;2023-06-14T00:01:13;5.07;;;4.57;;
17151;SDS011;8691;50.828;4.700;2023-06-14T00:03:50;8.87;;;4.63;;
17151;SDS011;8691;50.828;4.700;2023-06-14T00:06:28;8.33;;;5.10;;
17151;SDS011;8691;50.828;4.700;2023-06-14T00:09:03;5.43;;;4.77;;
17151;SDS011;8691;50.828;4.700;2023-06-14T00:11:41;6.83;;;4.93;;
17151;SDS011;8691;50.828;4.700;2023-06-14T00:14:17;6.57;;;5.22;;
17151;SDS011;8691;50.828;4.700;2023-06-14T00:16:54;5.75;;;5.15;;
17151;SDS011;8691;50.828;4.700;2023-06-14T00:19:30;5.50;;;4.67;;
17151;SDS011;8691;50.828;4.700;2023-06-14T00:22:07;5.40;;;4.83;;
17151;SDS011;8691;50.828;4.700;2023-06-14T00:24:44;5.43;;;4.93;;
17151;SDS011;8691;50.828;4.700;2023-06-14T00:27:21;4.70;;;4.23;;
17151;SDS011;8691;50.828;4.700;2023-06-14T00:29:58;5.63;;;4.47;;
17151;SDS011;8691;50.828;4.700;2023-06-14T00:32:34;7.73;;;4.60;;
17151;SDS011;8691;50.828;4.700;2023-06-14T00:35:11;5.93;;;4.88;;
17151;SDS011;8691;50.828;4.700;2023-06-14T00:37:48;5.40;;;4.70;;
17151;SDS011;8691;50.828;4.700;2023-06-14T00:40:25;4.57;;;4.17;;
17151;SDS011;8691;50.828;4.700;2023-06-14T00:43:01;7.17;;;5.40;;
17151;SDS011;8691;50.828;4.700;2023-06-14T00:45:38;6.90;;;5.30;;
17151;SDS011;8691;50.828;4.700;2023-06-14T00:48:15;5.60;;;4.77;;
17151;SDS011;8691;50.828;4.700;2023-06-14T00:50:51;5.83;;;5.20;;
17151;SDS011;8691;50.828;4.700;2023-06-14T00:53:28;5.30;;;4.60;;
17151;SDS011;8691;50.828;4.700;2023-06-14T00:56:05;6.13;;;4.70;;
17151;SDS011;8691;50.828;4.700;2023-06-14T00:58:41;7.33;;;5.27;;
17151;SDS011;8691;50.828;4.700;2023-06-14T01:01:18;5.03;;;4.53;;
17151;SDS011;8691;50.828;4.700;2023-06-14T01:03:55;5.53;;;5.00;;
17151;SDS011;8691;50.828;4.700;2023-06-14T01:06:45;7.50;;;4.80;;
17151;SDS011;8691;50.828;4.700;2023-06-14T01:09:27;6.57;;;4.90;;
17151;SDS011;8691;50.828;4.700;2023-06-14T01:15:09;6.77;;;4.70;;
17151;SDS011;8691;50.828;4.700;2023-06-14T01:17:46;6.80;;;4.90;;
17151;SDS011;8691;50.828;4.700;2023-06-14T01:20:22;5.27;;;4.77;;
17151;SDS011;8691;50.828;4.700;2023-06-14T01:22:59;5.40;;;4.90;;
17151;SDS011;8691;50.828;4.700;2023-06-14T01:25:36;7.13;;;4.60;;
17151;SDS011;8691;50.828;4.700;2023-06-14T01:28:15;5.70;;;5.20;;
17151;SDS011;8691;50.828;4.700;2023-06-14T01:30:51;5.30;;;4.70;;
17151;SDS011;8691;50.828;4.700;2023-06-14T01:33:28;6.43;;;5.20;;
17151;SDS011;8691;50.828;4.700;2023-06-14T01:36:05;7.47;;;4.87;;
17151;SDS011;8691;50.828;4.700;2023-06-14T01:38:41;5.03;;;4.47;;
17151;SDS011;8691;50.828;4.700;2023-06-14T01:41:18;7.10;;;5.13;;
17151;SDS011;8691;50.828;4.700;2023-06-14T01:43:55;6.93;;;5.13;;
17151;SDS011;8691;50.828;4.700;2023-06-14T01:46:31;5.60;;;5.00;;
17151;SDS011;8691;50.828;4.700;2023-06-14T01:49:08;9.47;;;5.73;;
17151;SDS011;8691;50.828;4.700;2023-06-14T01:51:45;6.70;;;5.10;;
17151;SDS011;8691;50.828;4.700;2023-06-14T01:54:21;8.17;;;5.03;;
17151;SDS011;8691;50.828;4.700;2023-06-14T01:56:58;5.87;;;5.30;;
17151;SDS011;8691;50.828;4.700;2023-06-14T01:59:34;5.47;;;4.97;;
17151;SDS011;8691;50.828;4.700;2023-06-14T02:02:11;7.07;;;4.40;;
17151;SDS011;8691;50.828;4.700;2023-06-14T02:04:49;5.53;;;5.03;;
17151;SDS011;8691;50.828;4.700;2023-06-14T02:07:25;5.27;;;4.77;;
17151;SDS011;8691;50.828;4.700;2023-06-14T02:10:03;7.60;;;5.60;;
17151;SDS011;8691;50.828;4.700;2023-06-14T02:12:39;7.30;;;5.13;;
17151;SDS011;8691;50.828;4.700;2023-06-14T02:15:15;5.70;;;5.00;;
17151;SDS011;8691;50.828;4.700;2023-06-14T02:17:55;6.83;;;5.07;;
17151;SDS011;8691;50.828;4.700;2023-06-14T02:20:31;6.30;;;5.70;;
17151;SDS011;8691;50.828;4.700;2023-06-14T02:23:08;6.20;;;5.60;;
17151;SDS011;8691;50.828;4.700;2023-06-14T02:25:46;6.87;;;5.77;;
17151;SDS011;8691;50.828;4.700;2023-06-14T02:28:22;7.27;;;5.97;;
17151;SDS011;8691;50.828;4.700;2023-06-14T02:30:59;8.47;;;5.33;;
17151;SDS011;8691;50.828;4.700;2023-06-14T02:33:36;5.93;;;5.30;;
17151;SDS011;8691;50.828;4.700;2023-06-14T02:36:13;9.10;;;5.97;;
17151;SDS011;8691;50.828;4.700;2023-06-14T02:38:50;5.80;;;5.20;;
17151;SDS011;8691;50.828;4.700;2023-06-14T02:41:27;5.73;;;5.23;;
17151;SDS011;8691;50.828;4.700;2023-06-14T02:44:03;5.47;;;4.97;;
17151;SDS011;8691;50.828;4.700;2023-06-14T02:46:40;5.57;;;4.73;;
17151;SDS011;8691;50.828;4.700;2023-06-14T02:49:16;9.00;;;5.67;;
17151;SDS011;8691;50.828;4.700;2023-06-14T02:51:53;5.30;;;4.77;;
17151;SDS011;8691;50.828;4.700;2023-06-14T02:54:30;6.80;;;6.10;;
17151;SDS011;8691;50.828;4.700;2023-06-14T02:57:07;5.90;;;5.20;;
17151;SDS011;8691;50.828;4.700;2023-06-14T02:59:43;6.00;;;5.40;;
17151;SDS011;8691;50.828;4.700;2023-06-14T03:02:20;7.03;;;5.40;;
17151;SDS011;8691;50.828;4.700;2023-06-14T03:04:57;6.07;;;5.47;;
17151;SDS011;8691;50.828;4.700;2023-06-14T03:07:33;6.20;;;5.63;;
17151;SDS011;8691;50.828;4.700;2023-06-14T03:10:11;6.40;;;5.37;;
17151;SDS011;8691;50.828;4.700;2023-06-14T03:12:47;5.70;;;5.20;;
17151;SDS011;8691;50.828;4.700;2023-06-14T03:15:24;6.77;;;5.53;;
17151;SDS011;8691;50.828;4.700;2023-06-14T03:18:01;6.20;;;5.57;;
17151;SDS011;8691;50.828;4.700;2023-06-14T03:20:38;6.80;;;6.00;;
17151;SDS011;8691;50.828;4.700;2023-06-14T03:23:14;6.60;;;5.83;;
17151;SDS011;8691;50.828;4.700;2023-06-14T03:25:51;6.37;;;5.33;;
17151;SDS011;8691;50.828;4.700;2023-06-14T03:28:27;11.47;;;6.47;;
17151;SDS011;8691;50.828;4.700;2023-06-14T03:31:04;8.93;;;5.70;;
17151;SDS011;8691;50.828;4.700;2023-06-14T03:33:41;6.90;;;6.20;;
17151;SDS011;8691;50.828;4.700;2023-06-14T03:36:17;9.33;;;6.13;;
17151;SDS011;8691;50.828;4.700;2023-06-14T03:38:54;6.60;;;6.00;;
17151;SDS011;8691;50.828;4.700;2023-06-14T03:41:31;7.05;;;6.32;;
17151;SDS011;8691;50.828;4.700;2023-06-14T03:44:08;12.63;;;6.03;;
17151;SDS011;8691;50.828;4.700;2023-06-14T03:46:45;7.63;;;6.23;;
17151;SDS011;8691;50.828;4.700;2023-06-14T03:49:22;10.37;;;5.77;;
17151;SDS011;8691;50.828;4.700;2023-06-14T03:51:59;8.10;;;6.27;;
17151;SDS011;8691;50.828;4.700;2023-06-14T03:54:36;10.70;;;6.90;;
17151;SDS011;8691;50.828;4.700;2023-06-14T03:57:12;9.47;;;6.70;;
17151;SDS011;8691;50.828;4.700;2023-06-14T03:59:49;9.18;;;6.45;;
17151;SDS011;8691;50.828;4.700;2023-06-14T04:02:26;6.30;;;5.70;;
17151;SDS011;8691;50.828;4.700;2023-06-14T04:05:03;7.10;;;5.57;;
17151;SDS011;8691;50.828;4.700;2023-06-14T04:07:39;8.30;;;6.10;;
17151;SDS011;8691;50.828;4.700;2023-06-14T04:10:17;7.10;;;5.93;;
17151;SDS011;8691;50.828;4.700;2023-06-14T04:12:53;7.17;;;6.30;;
17151;SDS011;8691;50.828;4.700;2023-06-14T04:15:29;6.03;;;5.53;;
17151;SDS011;8691;50.828;4.700;2023-06-14T04:18:06;6.20;;;5.60;;
17151;SDS011;8691;50.828;4.700;2023-06-14T04:20:43;7.60;;;5.87;;
17151;SDS011;8691;50.828;4.700;2023-06-14T04:23:19;6.93;;;6.20;;
17151;SDS011;8691;50.828;4.700;2023-06-14T04:25:56;7.07;;;6.20;;
17151;SDS011;8691;50.828;4.700;2023-06-14T04:28:33;8.95;;;6.68;;
17151;SDS011;8691;50.828;4.700;2023-06-14T04:31:09;8.30;;;6.13;;
17151;SDS011;8691;50.828;4.700;2023-06-14T04:33:46;6.33;;;5.73;;
17151;SDS011;8691;50.828;4.700;2023-06-14T04:36:23;5.80;;;5.20;;
17151;SDS011;8691;50.828;4.700;2023-06-14T04:39:00;10.05;;;6.72;;
17151;SDS011;8691;50.828;4.700;2023-06-14T04:41:36;8.67;;;5.57;;
17151;SDS011;8691;50.828;4.700;2023-06-14T04:44:13;7.37;;;5.93;;
17151;SDS011;8691;50.828;4.700;2023-06-14T04:46:50;7.17;;;5.77;;
17151;SDS011;8691;50.828;4.700;2023-06-14T04:49:26;7.67;;;5.47;;
17151;SDS011;8691;50.828;4.700;2023-06-14T04:52:03;6.47;;;5.63;;
17151;SDS011;8691;50.828;4.700;2023-06-14T04:54:40;7.63;;;5.23;;
17151;SDS011;8691;50.828;4.700;2023-06-14T04:57:19;6.77;;;5.77;;
17151;SDS011;8691;50.828;4.700;2023-06-14T04:59:56;7.80;;;5.90;;
17151;SDS011;8691;50.828;4.700;2023-06-14T05:02:32;8.37;;;5.63;;
17151;SDS011;8691;50.828;4.700;2023-06-14T05:05:09;6.97;;;5.50;;
17151;SDS011;8691;50.828;4.700;2023-06-14T05:07:46;8.62;;;6.80;;
17151;SDS011;8691;50.828;4.700;2023-06-14T05:10:24;6.60;;;6.00;;
17151;SDS011;8691;50.828;4.700;2023-06-14T05:13:00;9.30;;;6.23;;
17151;SDS011;8691;50.828;4.700;2023-06-14T05:15:37;8.07;;;6.07;;
17151;SDS011;8691;50.828;4.700;2023-06-14T05:18:13;11.10;;;6.80;;
17151;SDS011;8691;50.828;4.700;2023-06-14T05:20:50;8.32;;;6.75;;
17151;SDS011;8691;50.828;4.700;2023-06-14T05:23:27;8.30;;;6.27;;
17151;SDS011;8691;50.828;4.700;2023-06-14T05:26:04;7.17;;;5.80;;
17151;SDS011;8691;50.828;4.700;2023-06-14T05:28:41;10.65;;;6.95;;
17151;SDS011;8691;50.828;4.700;2023-06-14T05:31:17;7.60;;;6.80;;
17151;SDS011;8691;50.828;4.700;2023-06-14T05:33:54;9.63;;;6.00;;
17151;SDS011;8691;50.828;4.700;2023-06-14T05:36:31;7.30;;;6.07;;
17151;SDS011;8691;50.828;4.700;2023-06-14T05:39:08;9.37;;;6.10;;
17151;SDS011;8691;50.828;4.700;2023-06-14T05:41:45;9.43;;;5.70;;
17151;SDS011;8691;50.828;4.700;2023-06-14T05:44:21;8.30;;;5.83;;
17151;SDS011;8691;50.828;4.700;2023-06-14T05:46:58;11.50;;;5.87;;
17151;SDS011;8691;50.828;4.700;2023-06-14T05:49:35;8.37;;;6.30;;
17151;SDS011;8691;50.828;4.700;2023-06-14T05:52:11;7.20;;;5.53;;
17151;SDS011;8691;50.828;4.700;2023-06-14T05:54:48;7.85;;;6.05;;
17151;SDS011;8691;50.828;4.700;2023-06-14T05:57:25;6.17;;;5.47;;
17151;SDS011;8691;50.828;4.700;2023-06-14T06:00:02;8.93;;;5.50;;
17151;SDS011;8691;50.828;4.700;2023-06-14T06:02:43;10.73;;;6.13;;
17151;SDS011;8691;50.828;4.700;2023-06-14T06:05:16;8.20;;;5.70;;
17151;SDS011;8691;50.828;4.700;2023-06-14T06:07:53;9.77;;;5.90;;
17151;SDS011;8691;50.828;4.700;2023-06-14T06:10:29;7.30;;;4.93;;
17151;SDS011;8691;50.828;4.700;2023-06-14T06:13:06;8.57;;;5.93;;
17151;SDS011;8691;50.828;4.700;2023-06-14T06:15:43;7.90;;;5.53;;
17151;SDS011;8691;50.828;4.700;2023-06-14T06:18:20;5.60;;;5.03;;
17151;SDS011;8691;50.828;4.700;2023-06-14T06:20:56;6.47;;;5.40;;
17151;SDS011;8691;50.828;4.700;2023-06-14T06:23:33;8.53;;;5.70;;
17151;SDS011;8691;50.828;4.700;2023-06-14T06:26:09;8.50;;;5.67;;
17151;SDS011;8691;50.828;4.700;2023-06-14T06:28:46;5.73;;;4.90;;
17151;SDS011;8691;50.828;4.700;2023-06-14T06:31:23;6.30;;;5.37;;
17151;SDS011;8691;50.828;4.700;2023-06-14T06:33:59;5.57;;;4.83;;
17151;SDS011;8691;50.828;4.700;2023-06-14T06:36:36;9.00;;;5.07;;
17151;SDS011;8691;50.828;4.700;2023-06-14T06:39:13;9.03;;;5.40;;
17151;SDS011;8691;50.828;4.700;2023-06-14T06:41:50;6.97;;;4.93;;
17151;SDS011;8691;50.828;4.700;2023-06-14T06:44:27;7.65;;;5.40;;
17151;SDS011;8691;50.828;4.700;2023-06-14T06:47:03;7.13;;;5.00;;
17151;SDS011;8691;50.828;4.700;2023-06-14T06:49:40;8.87;;;5.23;;
17151;SDS011;8691;50.828;4.700;2023-06-14T06:52:17;7.63;;;5.00;;
17151;SDS011;8691;50.828;4.700;2023-06-14T06:54:53;4.97;;;4.47;;
17151;SDS011;8691;50.828;4.700;2023-06-14T06:57:31;7.10;;;4.63;;
17151;SDS011;8691;50.828;4.700;2023-06-14T07:00:08;7.63;;;5.03;;
17151;SDS011;8691;50.828;4.700;2023-06-14T07:02:44;5.63;;;4.90;;
17151;SDS011;8691;50.828;4.700;2023-06-14T07:05:21;6.33;;;4.40;;
17151;SDS011;8691;50.828;4.700;2023-06-14T07:07:58;9.77;;;4.70;;
17151;SDS011;8691;50.828;4.700;2023-06-14T07:10:35;8.07;;;4.93;;
17151;SDS011;8691;50.828;4.700;2023-06-14T07:13:11;5.87;;;4.80;;
17151;SDS011;8691;50.828;4.700;2023-06-14T07:15:48;6.07;;;4.70;;
17151;SDS011;8691;50.828;4.700;2023-06-14T07:18:25;5.47;;;4.40;;
17151;SDS011;8691;50.828;4.700;2023-06-14T07:21:01;6.70;;;4.63;;
17151;SDS011;8691;50.828;4.700;2023-06-14T07:23:38;5.80;;;4.35;;
17151;SDS011;8691;50.828;4.700;2023-06-14T07:26:15;4.93;;;4.33;;
17151;SDS011;8691;50.828;4.700;2023-06-14T07:28:52;4.70;;;4.10;;
17151;SDS011;8691;50.828;4.700;2023-06-14T07:31:29;6.20;;;4.60;;
17151;SDS011;8691;50.828;4.700;2023-06-14T07:34:05;8.70;;;4.00;;
17151;SDS011;8691;50.828;4.700;2023-06-14T07:36:42;4.07;;;3.77;;
17151;SDS011;8691;50.828;4.700;2023-06-14T07:39:19;5.90;;;4.73;;
17151;SDS011;8691;50.828;4.700;2023-06-14T07:41:55;9.27;;;3.83;;
17151;SDS011;8691;50.828;4.700;2023-06-14T07:44:32;5.63;;;3.90;;
17151;SDS011;8691;50.828;4.700;2023-06-14T07:47:09;5.13;;;4.10;;
17151;SDS011;8691;50.828;4.700;2023-06-14T07:49:46;4.75;;;4.00;;
17151;SDS011;8691;50.828;4.700;2023-06-14T07:52:23;4.83;;;3.80;;
17151;SDS011;8691;50.828;4.700;2023-06-14T07:54:59;4.40;;;4.00;;
17151;SDS011;8691;50.828;4.700;2023-06-14T07:57:36;6.53;;;3.93;;
17151;SDS011;8691;50.828;4.700;2023-06-14T08:00:13;6.00;;;3.90;;
17151;SDS011;8691;50.828;4.700;2023-06-14T08:02:50;5.03;;;3.63;;
17151;SDS011;8691;50.828;4.700;2023-06-14T08:05:27;6.47;;;3.63;;
17151;SDS011;8691;50.828;4.700;2023-06-14T08:08:03;7.17;;;3.07;;
17151;SDS011;8691;50.828;4.700;2023-06-14T08:10:40;6.00;;;3.80;;
17151;SDS011;8691;50.828;4.700;2023-06-14T08:13:17;7.33;;;4.13;;
17151;SDS011;8691;50.828;4.700;2023-06-14T08:15:53;10.30;;;4.43;;
17151;SDS011;8691;50.828;4.700;2023-06-14T08:18:30;5.90;;;3.90;;
17151;SDS011;8691;50.828;4.700;2023-06-14T08:21:07;4.27;;;3.87;;
17151;SDS011;8691;50.828;4.700;2023-06-14T08:23:44;5.03;;;3.90;;
17151;SDS011;8691;50.828;4.700;2023-06-14T08:26:20;6.80;;;3.90;;
17151;SDS011;8691;50.828;4.700;2023-06-14T08:28:57;4.23;;;3.83;;
17151;SDS011;8691;50.828;4.700;2023-06-14T08:31:34;8.13;;;3.93;;
17151;SDS011;8691;50.828;4.700;2023-06-14T08:34:11;6.28;;;3.97;;
17151;SDS011;8691;50.828;4.700;2023-06-14T08:36:47;5.20;;;3.87;;
17151;SDS011;8691;50.828;4.700;2023-06-14T08:39:24;7.37;;;3.60;;
17151;SDS011;8691;50.828;4.700;2023-06-14T08:42:01;3.87;;;3.47;;
17151;SDS011;8691;50.828;4.700;2023-06-14T08:44:38;5.87;;;4.07;;
17151;SDS011;8691;50.828;4.700;2023-06-14T08:47:15;7.40;;;4.00;;
17151;SDS011;8691;50.828;4.700;2023-06-14T08:49:51;5.43;;;4.00;;
17151;SDS011;8691;50.828;4.700;2023-06-14T08:52:28;6.30;;;4.57;;
17151;SDS011;8691;50.828;4.700;2023-06-14T08:55:05;5.00;;;4.07;;
17151;SDS011;8691;50.828;4.700;2023-06-14T08:57:41;5.57;;;3.87;;
17151;SDS011;8691;50.828;4.700;2023-06-14T09:00:18;5.43;;;3.80;;
17151;SDS011;8691;50.828;4.700;2023-06-14T09:02:55;9.03;;;4.13;;
17151;SDS011;8691;50.828;4.700;2023-06-14T09:05:31;4.50;;;3.57;;
17151;SDS011;8691;50.828;4.700;2023-06-14T09:08:08;8.00;;;4.43;;
17151;SDS011;8691;50.828;4.700;2023-06-14T09:10:45;6.60;;;4.13;;
17151;SDS011;8691;50.828;4.700;2023-06-14T09:13:22;6.87;;;4.47;;
17151;SDS011;8691;50.828;4.700;2023-06-14T09:15:59;5.57;;;4.30;;
17151;SDS011;8691;50.828;4.700;2023-06-14T09:18:43;5.70;;;4.07;;
17151;SDS011;8691;50.828;4.700;2023-06-14T09:21:21;5.27;;;4.47;;
17151;SDS011;8691;50.828;4.700;2023-06-14T09:23:58;5.80;;;4.17;;
17151;SDS011;8691;50.828;4.700;2023-06-14T09:26:35;4.37;;;3.90;;
17151;SDS011;8691;50.828;4.700;2023-06-14T09:29:12;4.13;;;3.47;;
17151;SDS011;8691;50.828;4.700;2023-06-14T09:31:48;5.77;;;3.87;;
17151;SDS011;8691;50.828;4.700;2023-06-14T09:34:25;6.37;;;3.90;;
17151;SDS011;8691;50.828;4.700;2023-06-14T09:37:02;5.77;;;4.20;;
17151;SDS011;8691;50.828;4.700;2023-06-14T09:39:51;11.27;;;3.80;;
17151;SDS011;8691;50.828;4.700;2023-06-14T09:42:27;4.43;;;3.30;;
17151;SDS011;8691;50.828;4.700;2023-06-14T09:45:04;4.37;;;3.33;;
17151;SDS011;8691;50.828;4.700;2023-06-14T09:47:41;3.70;;;3.40;;
17151;SDS011;8691;50.828;4.700;2023-06-14T09:50:17;3.50;;;3.20;;
17151;SDS011;8691;50.828;4.700;2023-06-14T09:52:54;7.70;;;3.80;;
17151;SDS011;8691;50.828;4.700;2023-06-14T09:55:31;5.70;;;3.20;;
17151;SDS011;8691;50.828;4.700;2023-06-14T09:58:08;3.90;;;3.30;;
17151;SDS011;8691;50.828;4.700;2023-06-14T10:00:44;5.67;;;3.67;;
17151;SDS011;8691;50.828;4.700;2023-06-14T10:03:25;6.80;;;3.67;;
17151;SDS011;8691;50.828;4.700;2023-06-14T10:05:58;3.67;;;3.13;;
17151;SDS011;8691;50.828;4.700;2023-06-14T10:08:34;8.83;;;3.90;;
17151;SDS011;8691;50.828;4.700;2023-06-14T10:11:11;5.80;;;3.40;;
17151;SDS011;8691;50.828;4.700;2023-06-14T10:13:47;3.63;;;3.23;;
17151;SDS011;8691;50.828;4.700;2023-06-14T10:16:34;3.90;;;3.50;;
17151;SDS011;8691;50.828;4.700;2023-06-14T10:21:59;3.80;;;3.50;;
17151;SDS011;8691;50.828;4.700;2023-06-14T10:24:41;8.00;;;3.70;;
17151;SDS011;8691;50.828;4.700;2023-06-14T10:27:17;3.27;;;2.80;;
17151;SDS011;8691;50.828;4.700;2023-06-14T10:32:31;8.07;;;4.17;;
17151;SDS011;8691;50.828;4.700;2023-06-14T10:35:08;16.37;;;6.27;;
17151;SDS011;8691;50.828;4.700;2023-06-14T10:37:46;19.10;;;6.97;;
17151;SDS011;8691;50.828;4.700;2023-06-14T10:40:30;4.80;;;3.10;;
17151;SDS011;8691;50.828;4.700;2023-06-14T10:43:22;3.93;;;3.10;;
17151;SDS011;8691;50.828;4.700;2023-06-14T10:46:14;14.17;;;5.53;;
17151;SDS011;8691;50.828;4.700;2023-06-14T10:48:53;5.43;;;3.37;;
17151;SDS011;8691;50.828;4.700;2023-06-14T10:51:30;3.77;;;3.20;;
17151;SDS011;8691;50.828;4.700;2023-06-14T10:54:07;4.80;;;3.20;;
17151;SDS011;8691;50.828;4.700;2023-06-14T10:56:47;6.30;;;3.07;;
17151;SDS011;8691;50.828;4.700;2023-06-14T10:59:23;4.13;;;3.20;;
17151;SDS011;8691;50.828;4.700;2023-06-14T11:13:15;6.07;;;2.83;;
17151;SDS011;8691;50.828;4.700;2023-06-14T11:15:50;4.43;;;2.43;;
17151;SDS011;8691;50.828;4.700;2023-06-14T11:18:28;5.17;;;3.30;;
17151;SDS011;8691;50.828;4.700;2023-06-14T11:21:04;6.57;;;3.20;;
17151;SDS011;8691;50.828;4.700;2023-06-14T11:23:41;4.60;;;3.17;;
17151;SDS011;8691;50.828;4.700;2023-06-14T11:26:25;4.87;;;2.67;;
17151;SDS011;8691;50.828;4.700;2023-06-14T11:29:04;6.78;;;3.20;;
17151;SDS011;8691;50.828;4.700;2023-06-14T11:31:43;4.03;;;2.80;;
17151;SDS011;8691;50.828;4.700;2023-06-14T11:34:20;4.33;;;2.70;;
17151;SDS011;8691;50.828;4.700;2023-06-14T11:36:56;4.97;;;2.90;;
17151;SDS011;8691;50.828;4.700;2023-06-14T11:39:33;4.83;;;2.90;;
17151;SDS011;8691;50.828;4.700;2023-06-14T11:42:13;3.50;;;2.93;;
17151;SDS011;8691;50.828;4.700;2023-06-14T11:44:46;5.30;;;3.23;;
17151;SDS011;8691;50.828;4.700;2023-06-14T11:47:23;5.67;;;2.80;;
17151;SDS011;8691;50.828;4.700;2023-06-14T11:50:00;7.67;;;3.10;;
17151;SDS011;8691;50.828;4.700;2023-06-14T11:52:37;6.17;;;2.87;;
17151;SDS011;8691;50.828;4.700;2023-06-14T11:55:16;7.50;;;3.07;;
17151;SDS011;8691;50.828;4.700;2023-06-14T11:57:55;4.40;;;2.77;;
17151;SDS011;8691;50.828;4.700;2023-06-14T12:00:32;4.20;;;3.12;;
17151;SDS011;8691;50.828;4.700;2023-06-14T12:03:09;4.10;;;2.93;;
17151;SDS011;8691;50.828;4.700;2023-06-14T12:05:46;6.63;;;2.73;;
17151;SDS011;8691;50.828;4.700;2023-06-14T12:08:22;5.57;;;2.90;;
17151;SDS011;8691;50.828;4.700;2023-06-14T12:10:59;3.10;;;2.80;;
17151;SDS011;8691;50.828;4.700;2023-06-14T12:13:37;3.97;;;2.60;;
17151;SDS011;8691;50.828;4.700;2023-06-14T12:16:12;7.93;;;2.50;;
17151;SDS011;8691;50.828;4.700;2023-06-14T12:18:49;5.27;;;3.30;;
17151;SDS011;8691;50.828;4.700;2023-06-14T12:21:25;6.43;;;2.70;;
17151;SDS011;8691;50.828;4.700;2023-06-14T12:24:03;4.00;;;2.40;;
17151;SDS011;8691;50.828;4.700;2023-06-14T12:26:39;3.97;;;2.73;;
17151;SDS011;8691;50.828;4.700;2023-06-14T12:29:15;4.13;;;2.27;;
17151;SDS011;8691;50.828;4.700;2023-06-14T12:31:52;3.80;;;2.30;;
17151;SDS011;8691;50.828;4.700;2023-06-14T12:34:29;3.17;;;2.53;;
17151;SDS011;8691;50.828;4.700;2023-06-14T12:37:05;2.93;;;2.63;;
17151;SDS011;8691;50.828;4.700;2023-06-14T12:39:42;4.30;;;2.33;;
17151;SDS011;8691;50.828;4.700;2023-06-14T12:42:19;5.07;;;2.33;;
17151;SDS011;8691;50.828;4.700;2023-06-14T12:44:56;2.93;;;2.23;;
17151;SDS011;8691;50.828;4.700;2023-06-14T12:47:33;5.23;;;2.13;;
17151;SDS011;8691;50.828;4.700;2023-06-14T12:50:09;2.10;;;1.90;;
17151;SDS011;8691;50.828;4.700;2023-06-14T12:52:46;3.50;;;2.20;;
17151;SDS011;8691;50.828;4.700;2023-06-14T12:55:23;4.23;;;2.07;;
17151;SDS011;8691;50.828;4.700;2023-06-14T12:57:59;5.30;;;2.40;;
17151;SDS011;8691;50.828;4.700;2023-06-14T13:00:36;2.63;;;2.00;;
17151;SDS011;8691;50.828;4.700;2023-06-14T13:03:13;3.05;;;2.40;;
17151;SDS011;8691;50.828;4.700;2023-06-14T13:05:50;2.60;;;2.00;;
17151;SDS011;8691;50.828;4.700;2023-06-14T13:08:27;3.38;;;2.30;;
17151;SDS011;8691;50.828;4.700;2023-06-14T13:11:03;4.90;;;2.10;;
17151;SDS011;8691;50.828;4.700;2023-06-14T13:13:40;2.90;;;2.00;;
17151;SDS011;8691;50.828;4.700;2023-06-14T13:16:16;3.40;;;1.83;;
17151;SDS011;8691;50.828;4.700;2023-06-14T13:18:53;2.45;;;1.98;;
17151;SDS011;8691;50.828;4.700;2023-06-14T13:21:31;4.20;;;2.20;;
17151;SDS011;8691;50.828;4.700;2023-06-14T13:24:07;3.93;;;1.53;;
17151;SDS011;8691;50.828;4.700;2023-06-14T13:26:44;5.60;;;1.60;;
17151;SDS011;8691;50.828;4.700;2023-06-14T13:29:21;2.28;;;1.40;;
17151;SDS011;8691;50.828;4.700;2023-06-14T13:31:58;1.60;;;1.50;;
17151;SDS011;8691;50.828;4.700;2023-06-14T13:34:34;1.70;;;1.33;;
17151;SDS011;8691;50.828;4.700;2023-06-14T13:37:11;1.40;;;1.30;;
17151;SDS011;8691;50.828;4.700;2023-06-14T13:39:48;5.07;;;1.33;;
17151;SDS011;8691;50.828;4.700;2023-06-14T13:42:24;4.40;;;1.23;;
17151;SDS011;8691;50.828;4.700;2023-06-14T13:45:01;2.50;;;1.60;;
17151;SDS011;8691;50.828;4.700;2023-06-14T13:47:37;2.67;;;1.40;;
17151;SDS011;8691;50.828;4.700;2023-06-14T13:50:14;2.70;;;1.50;;
17151;SDS011;8691;50.828;4.700;2023-06-14T13:52:51;2.67;;;1.33;;
17151;SDS011;8691;50.828;4.700;2023-06-14T13:55:28;2.40;;;1.40;;
17151;SDS011;8691;50.828;4.700;2023-06-14T13:58:04;2.37;;;1.20;;
17151;SDS011;8691;50.828;4.700;2023-06-14T14:00:41;3.20;;;1.30;;
17151;SDS011;8691;50.828;4.700;2023-06-14T14:03:18;2.03;;;1.37;;
17151;SDS011;8691;50.828;4.700;2023-06-14T14:05:54;1.80;;;1.50;;
17151;SDS011;8691;50.828;4.700;2023-06-14T14:08:31;4.43;;;1.27;;
17151;SDS011;8691;50.828;4.700;2023-06-14T14:11:09;1.40;;;1.20;;
17151;SDS011;8691;50.828;4.700;2023-06-14T14:13:46;2.65;;;1.52;;
17151;SDS011;8691;50.828;4.700;2023-06-14T14:16:22;2.63;;;1.43;;
17151;SDS011;8691;50.828;4.700;2023-06-14T14:18:59;3.57;;;1.30;;
17151;SDS011;8691;50.828;4.700;2023-06-14T14:21:36;3.10;;;1.70;;
17151;SDS011;8691;50.828;4.700;2023-06-14T14:24:12;2.23;;;1.33;;
17151;SDS011;8691;50.828;4.700;2023-06-14T14:26:49;4.43;;;1.50;;
17151;SDS011;8691;50.828;4.700;2023-06-14T14:29:26;1.67;;;1.30;;
17151;SDS011;8691;50.828;4.700;2023-06-14T14:32:02;4.40;;;1.53;;
17151;SDS011;8691;50.828;4.700;2023-06-14T14:34:39;1.80;;;1.30;;
17151;SDS011;8691;50.828;4.700;2023-06-14T14:37:16;1.90;;;1.50;;
17151;SDS011;8691;50.828;4.700;2023-06-14T14:39:53;3.27;;;1.40;;
17151;SDS011;8691;50.828;4.700;2023-06-14T14:42:29;3.10;;;1.23;;
17151;SDS011;8691;50.828;4.700;2023-06-14T14:45:06;2.57;;;1.77;;
17151;SDS011;8691;50.828;4.700;2023-06-14T14:47:43;4.20;;;1.53;;
17151;SDS011;8691;50.828;4.700;2023-06-14T14:50:19;1.60;;;1.27;;
17151;SDS011;8691;50.828;4.700;2023-06-14T14:52:56;4.73;;;1.43;;
17151;SDS011;8691;50.828;4.700;2023-06-14T14:55:33;3.03;;;1.70;;
17151;SDS011;8691;50.828;4.700;2023-06-14T14:58:09;1.77;;;1.53;;
17151;SDS011;8691;50.828;4.700;2023-06-14T15:00:46;1.43;;;1.33;;
17151;SDS011;8691;50.828;4.700;2023-06-14T15:03:23;3.47;;;1.60;;
17151;SDS011;8691;50.828;4.700;2023-06-14T15:06:00;3.80;;;1.50;;
17151;SDS011;8691;50.828;4.700;2023-06-14T15:08:37;8.17;;;1.80;;
17151;SDS011;8691;50.828;4.700;2023-06-14T15:11:13;5.47;;;1.50;;
17151;SDS011;8691;50.828;4.700;2023-06-14T15:13:50;1.93;;;1.57;;
17151;SDS011;8691;50.828;4.700;2023-06-14T15:16:27;1.97;;;1.50;;
17151;SDS011;8691;50.828;4.700;2023-06-14T15:19:03;4.57;;;1.90;;
17151;SDS011;8691;50.828;4.700;2023-06-14T15:21:40;2.37;;;1.53;;
17151;SDS011;8691;50.828;4.700;2023-06-14T15:24:17;3.20;;;1.60;;
17151;SDS011;8691;50.828;4.700;2023-06-14T15:26:53;2.27;;;1.33;;
17151;SDS011;8691;50.828;4.700;2023-06-14T15:29:30;5.53;;;1.77;;
17151;SDS011;8691;50.828;4.700;2023-06-14T15:32:07;2.53;;;1.73;;
17151;SDS011;8691;50.828;4.700;2023-06-14T15:34:44;3.10;;;1.53;;
17151;SDS011;8691;50.828;4.700;2023-06-14T15:37:21;1.80;;;1.67;;
17151;SDS011;8691;50.828;4.700;2023-06-14T15:39:57;3.77;;;1.50;;
17151;SDS011;8691;50.828;4.700;2023-06-14T15:42:34;3.60;;;1.60;;
17151;SDS011;8691;50.828;4.700;2023-06-14T15:45:11;2.37;;;1.50;;
17151;SDS011;8691;50.828;4.700;2023-06-14T15:47:48;5.13;;;1.30;;
17151;SDS011;8691;50.828;4.700;2023-06-14T15:50:25;4.63;;;1.60;;
17151;SDS011;8691;50.828;4.700;2023-06-14T15:53:02;2.47;;;1.23;;
17151;SDS011;8691;50.828;4.700;2023-06-14T15:55:38;2.40;;;1.17;;
17151;SDS011;8691;50.828;4.700;2023-06-14T15:58:15;1.97;;;1.53;;
17151;SDS011;8691;50.828;4.700;2023-06-14T16:00:51;5.93;;;1.23;;
17151;SDS011;8691;50.828;4.700;2023-06-14T16:03:28;1.33;;;1.23;;
17151;SDS011;8691;50.828;4.700;2023-06-14T16:06:04;3.97;;;1.40;;
17151;SDS011;8691;50.828;4.700;2023-06-14T16:08:41;3.33;;;1.43;;
17151;SDS011;8691;50.828;4.700;2023-06-14T16:11:18;5.37;;;1.23;;
17151;SDS011;8691;50.828;4.700;2023-06-14T16:13:54;3.13;;;1.40;;
17151;SDS011;8691;50.828;4.700;2023-06-14T16:16:31;3.87;;;1.33;;
17151;SDS011;8691;50.828;4.700;2023-06-14T16:19:08;1.50;;;1.30;;